sensor_id;sensor_type;location;lat;lon;timestamp;P1;durP1;ratioP1;P2;durP2;ratioP2
29202;SDS011;16245;51.170;4.884;2022-10-04T00:01:29;12.32;;;7.85;;
29202;SDS011;16245;51.170;4.884;2022-10-04T00:04:13;9.43;;;7.90;;
29202;SDS011;16245;51.170;4.884;2022-10-04T00:07:05;10.50;;;7.45;;
29202;SDS011;16245;51.170;4.884;2022-10-04T00:09:49;8.73;;;7.68;;
29202;SDS011;16245;51.170;4.884;2022-10-04T00:12:23;9.52;;;7.72;;
29202;SDS011;16245;51.170;4.884;2022-10-04T00:15:03;10.07;;;7.80;;
29202;SDS011;16245;51.170;4.884;2022-10-04T00:17:31;12.27;;;8.30;;
29202;SDS011;16245;51.170;4.884;2022-10-04T00:20:01;13.07;;;9.80;;
29202;SDS011;16245;51.170;4.884;2022-10-04T00:23:23;14.30;;;9.32;;
29202;SDS011;16245;51.170;4.884;2022-10-04T00:25:45;15.77;;;9.15;;
29202;SDS011;16245;51.170;4.884;2022-10-04T00:44:25;9.07;;;7.43;;
29202;SDS011;16245;51.170;4.884;2022-10-04T00:46:59;10.85;;;7.15;;
29202;SDS011;16245;51.170;4.884;2022-10-04T00:49:31;9.80;;;6.72;;
29202;SDS011;16245;51.170;4.884;2022-10-04T00:52:25;10.05;;;6.75;;
29202;SDS011;16245;51.170;4.884;2022-10-04T00:54:56;9.85;;;6.57;;
29202;SDS011;16245;51.170;4.884;2022-10-04T01:00:15;8.63;;;6.90;;
29202;SDS011;16245;51.170;4.884;2022-10-04T01:05:37;10.25;;;6.53;;
29202;SDS011;16245;51.170;4.884;2022-10-04T01:08:09;9.13;;;7.18;;
29202;SDS011;16245;51.170;4.884;2022-10-04T01:13:21;10.43;;;6.78;;
29202;SDS011;16245;51.170;4.884;2022-10-04T01:18:43;9.02;;;7.85;;
29202;SDS011;16245;51.170;4.884;2022-10-04T01:21:21;9.98;;;7.20;;
29202;SDS011;16245;51.170;4.884;2022-10-04T01:24:31;9.73;;;7.40;;
29202;SDS011;16245;51.170;4.884;2022-10-04T01:26:42;10.98;;;7.78;;
29202;SDS011;16245;51.170;4.884;2022-10-04T01:29:14;9.95;;;7.88;;
29202;SDS011;16245;51.170;4.884;2022-10-04T01:31:51;9.48;;;6.95;;
29202;SDS011;16245;51.170;4.884;2022-10-04T01:34:20;8.93;;;7.68;;
29202;SDS011;16245;51.170;4.884;2022-10-04T01:36:51;8.73;;;6.30;;
29202;SDS011;16245;51.170;4.884;2022-10-04T01:39:20;9.13;;;7.03;;
29202;SDS011;16245;51.170;4.884;2022-10-04T01:44:37;10.18;;;7.05;;
29202;SDS011;16245;51.170;4.884;2022-10-04T01:47:18;8.73;;;6.75;;
29202;SDS011;16245;51.170;4.884;2022-10-04T01:49:48;7.95;;;6.75;;
29202;SDS011;16245;51.170;4.884;2022-10-04T01:54:57;11.98;;;6.95;;
29202;SDS011;16245;51.170;4.884;2022-10-04T01:57:48;9.60;;;6.53;;
29202;SDS011;16245;51.170;4.884;2022-10-04T02:00:22;8.68;;;6.38;;
29202;SDS011;16245;51.170;4.884;2022-10-04T02:05:32;9.88;;;6.43;;
29202;SDS011;16245;51.170;4.884;2022-10-04T02:08:04;8.65;;;7.20;;
29202;SDS011;16245;51.170;4.884;2022-10-04T02:10:40;8.18;;;5.97;;
29202;SDS011;16245;51.170;4.884;2022-10-04T02:13:08;12.57;;;6.32;;
29202;SDS011;16245;51.170;4.884;2022-10-04T02:15:37;10.90;;;7.10;;
29202;SDS011;16245;51.170;4.884;2022-10-04T02:18:08;9.65;;;6.65;;
29202;SDS011;16245;51.170;4.884;2022-10-04T02:20:38;7.50;;;6.40;;
29202;SDS011;16245;51.170;4.884;2022-10-04T02:23:05;10.52;;;6.57;;
29202;SDS011;16245;51.170;4.884;2022-10-04T02:25:32;7.80;;;5.63;;
29202;SDS011;16245;51.170;4.884;2022-10-04T02:28:01;7.32;;;5.93;;
29202;SDS011;16245;51.170;4.884;2022-10-04T02:30:26;5.85;;;5.22;;
29202;SDS011;16245;51.170;4.884;2022-10-04T02:32:53;8.88;;;5.13;;
29202;SDS011;16245;51.170;4.884;2022-10-04T02:37:54;7.15;;;5.60;;
29202;SDS011;16245;51.170;4.884;2022-10-04T02:40:28;7.53;;;5.45;;
29202;SDS011;16245;51.170;4.884;2022-10-04T02:48:18;7.65;;;6.40;;
29202;SDS011;16245;51.170;4.884;2022-10-04T02:51:41;10.60;;;6.20;;
29202;SDS011;16245;51.170;4.884;2022-10-04T02:54:34;8.80;;;6.70;;
29202;SDS011;16245;51.170;4.884;2022-10-04T02:56:54;10.55;;;6.32;;
29202;SDS011;16245;51.170;4.884;2022-10-04T02:59:22;9.10;;;6.97;;
29202;SDS011;16245;51.170;4.884;2022-10-04T03:01:52;11.93;;;7.18;;
29202;SDS011;16245;51.170;4.884;2022-10-04T03:04:32;8.95;;;6.57;;
29202;SDS011;16245;51.170;4.884;2022-10-04T03:07:04;11.60;;;6.70;;
29202;SDS011;16245;51.170;4.884;2022-10-04T03:09:31;8.52;;;6.82;;
29202;SDS011;16245;51.170;4.884;2022-10-04T03:12:00;7.72;;;6.75;;
29202;SDS011;16245;51.170;4.884;2022-10-04T03:14:28;9.60;;;7.38;;
29202;SDS011;16245;51.170;4.884;2022-10-04T03:16:56;14.23;;;7.93;;
29202;SDS011;16245;51.170;4.884;2022-10-04T03:19:25;10.77;;;9.20;;
29202;SDS011;16245;51.170;4.884;2022-10-04T03:21:54;12.50;;;8.18;;
29202;SDS011;16245;51.170;4.884;2022-10-04T03:24:23;15.60;;;9.55;;
29202;SDS011;16245;51.170;4.884;2022-10-04T03:26:53;14.82;;;9.93;;
29202;SDS011;16245;51.170;4.884;2022-10-04T03:29:22;15.73;;;10.32;;
29202;SDS011;16245;51.170;4.884;2022-10-04T03:31:51;11.38;;;9.60;;
29202;SDS011;16245;51.170;4.884;2022-10-04T03:34:27;16.55;;;9.43;;
29202;SDS011;16245;51.170;4.884;2022-10-04T03:37:00;14.48;;;9.88;;
29202;SDS011;16245;51.170;4.884;2022-10-04T03:39:29;15.70;;;9.75;;
29202;SDS011;16245;51.170;4.884;2022-10-04T03:41:58;15.18;;;8.60;;
29202;SDS011;16245;51.170;4.884;2022-10-04T03:44:28;14.40;;;10.40;;
29202;SDS011;16245;51.170;4.884;2022-10-04T03:46:55;13.98;;;8.93;;
29202;SDS011;16245;51.170;4.884;2022-10-04T03:49:33;14.93;;;9.75;;
29202;SDS011;16245;51.170;4.884;2022-10-04T03:52:01;15.68;;;10.10;;
29202;SDS011;16245;51.170;4.884;2022-10-04T03:54:27;14.95;;;9.57;;
29202;SDS011;16245;51.170;4.884;2022-10-04T03:56:54;13.88;;;8.60;;
29202;SDS011;16245;51.170;4.884;2022-10-04T03:59:22;13.48;;;9.00;;
29202;SDS011;16245;51.170;4.884;2022-10-04T04:04:54;10.65;;;9.00;;
29202;SDS011;16245;51.170;4.884;2022-10-04T04:07:35;15.82;;;9.52;;
29202;SDS011;16245;51.170;4.884;2022-10-04T04:10:08;11.02;;;7.68;;
29202;SDS011;16245;51.170;4.884;2022-10-04T04:15:32;15.98;;;8.13;;
29202;SDS011;16245;51.170;4.884;2022-10-04T04:18:02;12.02;;;7.60;;
29202;SDS011;16245;51.170;4.884;2022-10-04T04:20:37;9.95;;;7.72;;
29202;SDS011;16245;51.170;4.884;2022-10-04T04:23:10;11.65;;;7.25;;
29202;SDS011;16245;51.170;4.884;2022-10-04T04:25:41;10.45;;;7.53;;
29202;SDS011;16245;51.170;4.884;2022-10-04T04:30:50;13.43;;;7.38;;
29202;SDS011;16245;51.170;4.884;2022-10-04T04:33:25;11.85;;;8.23;;
29202;SDS011;16245;51.170;4.884;2022-10-04T04:36:04;11.02;;;8.63;;
29202;SDS011;16245;51.170;4.884;2022-10-04T04:38:31;14.77;;;7.72;;
29202;SDS011;16245;51.170;4.884;2022-10-04T04:40:57;15.10;;;9.07;;
29202;SDS011;16245;51.170;4.884;2022-10-04T04:43:34;15.50;;;8.95;;
29202;SDS011;16245;51.170;4.884;2022-10-04T04:46:00;16.08;;;8.75;;
29202;SDS011;16245;51.170;4.884;2022-10-04T04:48:26;15.45;;;9.85;;
29202;SDS011;16245;51.170;4.884;2022-10-04T04:50:54;10.65;;;8.88;;
29202;SDS011;16245;51.170;4.884;2022-10-04T04:53:22;16.92;;;8.85;;
29202;SDS011;16245;51.170;4.884;2022-10-04T04:55:55;12.32;;;8.38;;
29202;SDS011;16245;51.170;4.884;2022-10-04T04:58:27;11.50;;;8.40;;
29202;SDS011;16245;51.170;4.884;2022-10-04T05:01:00;14.30;;;9.10;;
29202;SDS011;16245;51.170;4.884;2022-10-04T05:03:33;19.35;;;9.32;;
29202;SDS011;16245;51.170;4.884;2022-10-04T05:05:58;15.13;;;9.27;;
29202;SDS011;16245;51.170;4.884;2022-10-04T05:08:30;12.55;;;8.02;;
29202;SDS011;16245;51.170;4.884;2022-10-04T05:11:02;17.10;;;8.25;;
29202;SDS011;16245;51.170;4.884;2022-10-04T05:13:44;12.73;;;8.43;;
29202;SDS011;16245;51.170;4.884;2022-10-04T05:19:07;10.73;;;7.38;;
29202;SDS011;16245;51.170;4.884;2022-10-04T05:21:40;13.95;;;8.20;;
29202;SDS011;16245;51.170;4.884;2022-10-04T05:24:09;15.70;;;8.30;;
29202;SDS011;16245;51.170;4.884;2022-10-04T05:26:38;11.70;;;7.60;;
29202;SDS011;16245;51.170;4.884;2022-10-04T05:29:08;9.52;;;6.97;;
29202;SDS011;16245;51.170;4.884;2022-10-04T05:34:30;9.07;;;6.55;;
29202;SDS011;16245;51.170;4.884;2022-10-04T05:37:07;10.80;;;7.72;;
29202;SDS011;16245;51.170;4.884;2022-10-04T05:42:42;14.77;;;7.32;;
29202;SDS011;16245;51.170;4.884;2022-10-04T05:45:15;14.13;;;6.80;;
29202;SDS011;16245;51.170;4.884;2022-10-04T05:47:44;8.15;;;6.15;;
29202;SDS011;16245;51.170;4.884;2022-10-04T05:50:18;9.32;;;6.03;;
29202;SDS011;16245;51.170;4.884;2022-10-04T06:01:12;11.68;;;6.03;;
29202;SDS011;16245;51.170;4.884;2022-10-04T06:04:10;8.63;;;5.40;;
29202;SDS011;16245;51.170;4.884;2022-10-04T06:21:24;14.02;;;7.45;;
29202;SDS011;16245;51.170;4.884;2022-10-04T06:24:08;14.10;;;8.27;;
29202;SDS011;16245;51.170;4.884;2022-10-04T06:26:42;20.73;;;8.60;;
29202;SDS011;16245;51.170;4.884;2022-10-04T06:29:14;19.50;;;7.53;;
29202;SDS011;16245;51.170;4.884;2022-10-04T06:37:25;6.65;;;5.90;;
29202;SDS011;16245;51.170;4.884;2022-10-04T06:40:18;9.27;;;5.55;;
29202;SDS011;16245;51.170;4.884;2022-10-04T06:49:03;11.93;;;6.32;;
29202;SDS011;16245;51.170;4.884;2022-10-04T06:51:55;11.57;;;7.15;;
29202;SDS011;16245;51.170;4.884;2022-10-04T07:00:46;13.32;;;6.97;;
29202;SDS011;16245;51.170;4.884;2022-10-04T07:03:23;16.25;;;7.30;;
29202;SDS011;16245;51.170;4.884;2022-10-04T07:06:13;9.98;;;6.05;;
29202;SDS011;16245;51.170;4.884;2022-10-04T07:08:49;15.38;;;7.07;;
29202;SDS011;16245;51.170;4.884;2022-10-04T07:11:23;9.30;;;6.72;;
29202;SDS011;16245;51.170;4.884;2022-10-04T07:16:28;13.40;;;6.63;;
29202;SDS011;16245;51.170;4.884;2022-10-04T07:21:41;8.50;;;4.82;;
29202;SDS011;16245;51.170;4.884;2022-10-04T07:27:18;8.05;;;3.65;;
29202;SDS011;16245;51.170;4.884;2022-10-04T07:30:05;7.22;;;3.90;;
29202;SDS011;16245;51.170;4.884;2022-10-04T07:32:34;6.25;;;3.92;;
29202;SDS011;16245;51.170;4.884;2022-10-04T07:43:27;11.32;;;4.90;;
29202;SDS011;16245;51.170;4.884;2022-10-04T07:46:00;14.43;;;5.68;;
29202;SDS011;16245;51.170;4.884;2022-10-04T07:48:41;13.13;;;6.47;;
29202;SDS011;16245;51.170;4.884;2022-10-04T07:51:18;13.18;;;5.93;;
29202;SDS011;16245;51.170;4.884;2022-10-04T07:54:07;12.20;;;6.20;;
29202;SDS011;16245;51.170;4.884;2022-10-04T08:05:00;7.70;;;4.20;;
29202;SDS011;16245;51.170;4.884;2022-10-04T08:07:35;7.78;;;4.10;;
29202;SDS011;16245;51.170;4.884;2022-10-04T08:10:33;8.23;;;4.45;;
29202;SDS011;16245;51.170;4.884;2022-10-04T08:13:14;7.53;;;4.53;;
29202;SDS011;16245;51.170;4.884;2022-10-04T08:15:50;9.15;;;4.93;;
29202;SDS011;16245;51.170;4.884;2022-10-04T08:18:38;11.77;;;4.65;;
29202;SDS011;16245;51.170;4.884;2022-10-04T08:21:06;7.10;;;4.40;;
29202;SDS011;16245;51.170;4.884;2022-10-04T09:12:17;9.27;;;4.90;;
29202;SDS011;16245;51.170;4.884;2022-10-04T09:20:43;9.82;;;4.32;;
29202;SDS011;16245;51.170;4.884;2022-10-04T09:36:55;7.95;;;3.80;;
29202;SDS011;16245;51.170;4.884;2022-10-04T09:39:56;8.07;;;4.57;;
29202;SDS011;16245;51.170;4.884;2022-10-04T10:21:40;8.50;;;4.60;;
29202;SDS011;16245;51.170;4.884;2022-10-04T10:25:11;7.80;;;4.07;;
29202;SDS011;16245;51.170;4.884;2022-10-04T10:27:51;8.25;;;4.75;;
29202;SDS011;16245;51.170;4.884;2022-10-04T10:33:30;5.65;;;3.88;;
29202;SDS011;16245;51.170;4.884;2022-10-04T10:44:39;6.97;;;3.80;;
29202;SDS011;16245;51.170;4.884;2022-10-04T10:52:37;10.02;;;4.72;;
29202;SDS011;16245;51.170;4.884;2022-10-04T11:01:45;9.95;;;4.78;;
29202;SDS011;16245;51.170;4.884;2022-10-04T11:04:44;8.02;;;4.18;;
29202;SDS011;16245;51.170;4.884;2022-10-04T11:10:31;9.38;;;4.38;;
29202;SDS011;16245;51.170;4.884;2022-10-04T11:44:46;7.47;;;4.85;;
29202;SDS011;16245;51.170;4.884;2022-10-04T11:47:35;7.30;;;4.60;;
29202;SDS011;16245;51.170;4.884;2022-10-04T11:50:24;11.40;;;4.63;;
29202;SDS011;16245;51.170;4.884;2022-10-04T12:01:38;9.55;;;3.72;;
29202;SDS011;16245;51.170;4.884;2022-10-04T12:04:26;7.40;;;3.88;;
29202;SDS011;16245;51.170;4.884;2022-10-04T12:11:08;7.55;;;3.88;;
29202;SDS011;16245;51.170;4.884;2022-10-04T12:35:22;8.23;;;3.60;;
29202;SDS011;16245;51.170;4.884;2022-10-04T12:47:02;5.68;;;3.08;;
29202;SDS011;16245;51.170;4.884;2022-10-04T12:49:49;7.30;;;3.88;;
29202;SDS011;16245;51.170;4.884;2022-10-04T12:52:24;4.95;;;3.47;;
29202;SDS011;16245;51.170;4.884;2022-10-04T12:54:59;7.35;;;3.40;;
29202;SDS011;16245;51.170;4.884;2022-10-04T12:58:05;7.25;;;3.33;;
29202;SDS011;16245;51.170;4.884;2022-10-04T13:01:06;5.85;;;3.38;;
29202;SDS011;16245;51.170;4.884;2022-10-04T13:06:30;9.68;;;3.97;;
29202;SDS011;16245;51.170;4.884;2022-10-04T13:14:25;3.47;;;2.65;;
29202;SDS011;16245;51.170;4.884;2022-10-04T13:25:43;7.35;;;3.22;;
29202;SDS011;16245;51.170;4.884;2022-10-04T13:31:13;5.07;;;3.50;;
29202;SDS011;16245;51.170;4.884;2022-10-04T13:34:04;4.72;;;2.85;;
29202;SDS011;16245;51.170;4.884;2022-10-04T13:57:03;7.22;;;3.75;;
29202;SDS011;16245;51.170;4.884;2022-10-04T14:00:04;4.40;;;2.55;;
29202;SDS011;16245;51.170;4.884;2022-10-04T14:11:31;6.60;;;2.90;;
29202;SDS011;16245;51.170;4.884;2022-10-04T14:14:26;8.10;;;3.83;;
29202;SDS011;16245;51.170;4.884;2022-10-04T14:29:12;7.75;;;3.53;;
29202;SDS011;16245;51.170;4.884;2022-10-04T14:48:37;4.40;;;2.70;;
29202;SDS011;16245;51.170;4.884;2022-10-04T14:51:46;9.05;;;3.80;;
29202;SDS011;16245;51.170;4.884;2022-10-04T14:57:09;4.22;;;3.35;;
29202;SDS011;16245;51.170;4.884;2022-10-04T14:59:59;5.88;;;3.53;;
29202;SDS011;16245;51.170;4.884;2022-10-04T15:10:54;7.47;;;3.33;;
29202;SDS011;16245;51.170;4.884;2022-10-04T15:29:50;5.72;;;3.70;;
29202;SDS011;16245;51.170;4.884;2022-10-04T15:37:40;5.93;;;3.42;;
29202;SDS011;16245;51.170;4.884;2022-10-04T15:40:22;4.72;;;3.17;;
29202;SDS011;16245;51.170;4.884;2022-10-04T15:48:51;6.18;;;3.67;;
29202;SDS011;16245;51.170;4.884;2022-10-04T16:00:04;6.47;;;3.65;;
29202;SDS011;16245;51.170;4.884;2022-10-04T16:05:24;5.32;;;3.33;;
29202;SDS011;16245;51.170;4.884;2022-10-04T16:13:41;5.50;;;3.30;;
29202;SDS011;16245;51.170;4.884;2022-10-04T16:21:49;7.53;;;3.60;;
29202;SDS011;16245;51.170;4.884;2022-10-04T16:45:35;5.93;;;4.13;;
29202;SDS011;16245;51.170;4.884;2022-10-04T16:58:53;6.15;;;3.92;;
29202;SDS011;16245;51.170;4.884;2022-10-04T17:12:17;7.13;;;4.40;;
29202;SDS011;16245;51.170;4.884;2022-10-04T17:20:28;7.68;;;4.38;;
29202;SDS011;16245;51.170;4.884;2022-10-04T17:31:55;7.60;;;5.10;;
29202;SDS011;16245;51.170;4.884;2022-10-04T17:35:11;7.93;;;5.28;;
29202;SDS011;16245;51.170;4.884;2022-10-04T17:54:25;8.38;;;5.22;;
29202;SDS011;16245;51.170;4.884;2022-10-04T17:57:29;7.88;;;4.53;;
29202;SDS011;16245;51.170;4.884;2022-10-04T18:05:23;7.30;;;5.32;;
29202;SDS011;16245;51.170;4.884;2022-10-04T18:10:53;9.23;;;5.20;;
29202;SDS011;16245;51.170;4.884;2022-10-04T18:16:14;12.30;;;5.13;;
29202;SDS011;16245;51.170;4.884;2022-10-04T18:18:47;13.40;;;6.35;;
29202;SDS011;16245;51.170;4.884;2022-10-04T18:23:55;11.45;;;6.43;;
29202;SDS011;16245;51.170;4.884;2022-10-04T18:26:22;10.00;;;6.93;;
29202;SDS011;16245;51.170;4.884;2022-10-04T18:28:52;17.08;;;8.50;;
29202;SDS011;16245;51.170;4.884;2022-10-04T18:31:35;20.63;;;9.55;;
29202;SDS011;16245;51.170;4.884;2022-10-04T18:37:02;17.05;;;8.70;;
29202;SDS011;16245;51.170;4.884;2022-10-04T18:39:30;21.80;;;9.50;;
29202;SDS011;16245;51.170;4.884;2022-10-04T18:44:44;19.02;;;8.63;;
29202;SDS011;16245;51.170;4.884;2022-10-04T18:47:17;17.17;;;8.80;;
29202;SDS011;16245;51.170;4.884;2022-10-04T18:49:53;15.82;;;7.30;;
29202;SDS011;16245;51.170;4.884;2022-10-04T18:57:43;12.77;;;7.55;;
29202;SDS011;16245;51.170;4.884;2022-10-04T19:00:49;11.55;;;7.50;;
29202;SDS011;16245;51.170;4.884;2022-10-04T19:03:52;15.48;;;7.78;;
29202;SDS011;16245;51.170;4.884;2022-10-04T19:06:32;18.20;;;9.50;;
29202;SDS011;16245;51.170;4.884;2022-10-04T19:09:09;17.65;;;9.45;;
29202;SDS011;16245;51.170;4.884;2022-10-04T19:11:56;15.65;;;8.88;;
29202;SDS011;16245;51.170;4.884;2022-10-04T19:17:13;12.88;;;7.40;;
29202;SDS011;16245;51.170;4.884;2022-10-04T19:22:42;9.73;;;6.75;;
29202;SDS011;16245;51.170;4.884;2022-10-04T19:25:23;10.00;;;7.15;;
29202;SDS011;16245;51.170;4.884;2022-10-04T19:28:15;10.93;;;6.85;;
29202;SDS011;16245;51.170;4.884;2022-10-04T19:44:41;19.15;;;10.18;;
29202;SDS011;16245;51.170;4.884;2022-10-04T19:47:32;17.00;;;8.43;;
29202;SDS011;16245;51.170;4.884;2022-10-04T19:50:05;18.20;;;8.43;;
29202;SDS011;16245;51.170;4.884;2022-10-04T19:52:36;13.20;;;7.88;;
29202;SDS011;16245;51.170;4.884;2022-10-04T19:55:20;16.80;;;7.72;;
29202;SDS011;16245;51.170;4.884;2022-10-04T19:57:50;12.60;;;7.68;;
29202;SDS011;16245;51.170;4.884;2022-10-04T20:00:22;19.65;;;7.60;;
29202;SDS011;16245;51.170;4.884;2022-10-04T20:02:48;18.17;;;8.85;;
29202;SDS011;16245;51.170;4.884;2022-10-04T20:05:15;16.17;;;8.43;;
29202;SDS011;16245;51.170;4.884;2022-10-04T20:07:49;19.90;;;8.07;;
29202;SDS011;16245;51.170;4.884;2022-10-04T20:13:14;16.25;;;8.15;;
29202;SDS011;16245;51.170;4.884;2022-10-04T20:15:51;17.00;;;8.05;;
29202;SDS011;16245;51.170;4.884;2022-10-04T20:26:37;15.57;;;7.60;;
29202;SDS011;16245;51.170;4.884;2022-10-04T20:35:02;9.52;;;6.40;;
29202;SDS011;16245;51.170;4.884;2022-10-04T20:45:43;15.82;;;8.48;;
29202;SDS011;16245;51.170;4.884;2022-10-04T20:48:10;14.77;;;7.90;;
29202;SDS011;16245;51.170;4.884;2022-10-04T20:50:42;15.32;;;8.27;;
29202;SDS011;16245;51.170;4.884;2022-10-04T20:53:18;15.38;;;8.52;;
29202;SDS011;16245;51.170;4.884;2022-10-04T20:55:44;13.50;;;8.07;;
29202;SDS011;16245;51.170;4.884;2022-10-04T21:01:39;15.25;;;8.20;;
29202;SDS011;16245;51.170;4.884;2022-10-04T21:06:52;10.88;;;7.28;;
29202;SDS011;16245;51.170;4.884;2022-10-04T21:09:21;13.75;;;6.65;;
29202;SDS011;16245;51.170;4.884;2022-10-04T21:11:49;12.18;;;7.10;;
29202;SDS011;16245;51.170;4.884;2022-10-04T21:14:32;12.48;;;7.03;;
29202;SDS011;16245;51.170;4.884;2022-10-04T21:17:03;12.57;;;7.60;;
29202;SDS011;16245;51.170;4.884;2022-10-04T21:19:50;13.02;;;7.55;;
29202;SDS011;16245;51.170;4.884;2022-10-04T21:24:42;14.38;;;8.27;;
29202;SDS011;16245;51.170;4.884;2022-10-04T21:30:11;9.07;;;6.72;;
29202;SDS011;16245;51.170;4.884;2022-10-04T21:32:39;13.90;;;7.43;;
29202;SDS011;16245;51.170;4.884;2022-10-04T21:35:04;12.02;;;7.30;;
29202;SDS011;16245;51.170;4.884;2022-10-04T21:37:32;9.45;;;6.35;;
29202;SDS011;16245;51.170;4.884;2022-10-04T21:39:58;8.85;;;6.38;;
29202;SDS011;16245;51.170;4.884;2022-10-04T21:42:24;9.10;;;5.88;;
29202;SDS011;16245;51.170;4.884;2022-10-04T21:44:49;8.10;;;5.80;;
29202;SDS011;16245;51.170;4.884;2022-10-04T21:47:15;9.50;;;6.30;;
29202;SDS011;16245;51.170;4.884;2022-10-04T21:49:41;8.73;;;6.18;;
29202;SDS011;16245;51.170;4.884;2022-10-04T21:52:07;7.63;;;6.53;;
29202;SDS011;16245;51.170;4.884;2022-10-04T21:54:33;11.00;;;6.32;;
29202;SDS011;16245;51.170;4.884;2022-10-04T21:56:59;13.02;;;6.90;;
29202;SDS011;16245;51.170;4.884;2022-10-04T21:59:25;10.02;;;6.28;;
29202;SDS011;16245;51.170;4.884;2022-10-04T22:01:51;13.65;;;7.40;;
29202;SDS011;16245;51.170;4.884;2022-10-04T22:04:16;8.70;;;6.57;;
29202;SDS011;16245;51.170;4.884;2022-10-04T22:06:42;11.50;;;7.55;;
29202;SDS011;16245;51.170;4.884;2022-10-04T22:09:08;11.35;;;6.45;;
29202;SDS011;16245;51.170;4.884;2022-10-04T22:11:34;13.00;;;7.30;;
29202;SDS011;16245;51.170;4.884;2022-10-04T22:14:00;9.75;;;7.05;;
29202;SDS011;16245;51.170;4.884;2022-10-04T22:16:26;6.75;;;5.88;;
29202;SDS011;16245;51.170;4.884;2022-10-04T22:18:52;6.88;;;5.97;;
29202;SDS011;16245;51.170;4.884;2022-10-04T22:21:18;10.63;;;7.03;;
29202;SDS011;16245;51.170;4.884;2022-10-04T22:23:43;10.35;;;6.68;;
29202;SDS011;16245;51.170;4.884;2022-10-04T22:26:14;10.13;;;6.30;;
29202;SDS011;16245;51.170;4.884;2022-10-04T22:28:45;12.02;;;7.10;;
29202;SDS011;16245;51.170;4.884;2022-10-04T22:31:13;10.18;;;6.78;;
29202;SDS011;16245;51.170;4.884;2022-10-04T22:33:41;11.13;;;6.85;;
29202;SDS011;16245;51.170;4.884;2022-10-04T22:36:41;9.25;;;7.30;;
29202;SDS011;16245;51.170;4.884;2022-10-04T22:39:12;12.73;;;8.70;;
29202;SDS011;16245;51.170;4.884;2022-10-04T22:41:47;14.70;;;8.05;;
29202;SDS011;16245;51.170;4.884;2022-10-04T22:44:21;16.92;;;8.90;;
29202;SDS011;16245;51.170;4.884;2022-10-04T22:47:01;21.33;;;10.73;;
29202;SDS011;16245;51.170;4.884;2022-10-04T22:49:31;16.95;;;9.48;;
29202;SDS011;16245;51.170;4.884;2022-10-04T22:51:59;14.45;;;9.63;;
29202;SDS011;16245;51.170;4.884;2022-10-04T22:54:31;16.13;;;9.75;;
29202;SDS011;16245;51.170;4.884;2022-10-04T22:56:59;18.67;;;9.57;;
29202;SDS011;16245;51.170;4.884;2022-10-04T22:59:38;23.08;;;10.13;;
29202;SDS011;16245;51.170;4.884;2022-10-04T23:02:17;20.83;;;10.18;;
29202;SDS011;16245;51.170;4.884;2022-10-04T23:04:51;25.33;;;10.45;;
29202;SDS011;16245;51.170;4.884;2022-10-04T23:07:23;17.33;;;9.57;;
29202;SDS011;16245;51.170;4.884;2022-10-04T23:09:49;17.73;;;9.07;;
29202;SDS011;16245;51.170;4.884;2022-10-04T23:12:15;14.90;;;9.07;;
29202;SDS011;16245;51.170;4.884;2022-10-04T23:14:41;17.60;;;9.07;;
29202;SDS011;16245;51.170;4.884;2022-10-04T23:17:16;16.52;;;8.70;;
29202;SDS011;16245;51.170;4.884;2022-10-04T23:19:56;17.10;;;9.57;;
29202;SDS011;16245;51.170;4.884;2022-10-04T23:22:25;19.20;;;11.25;;
29202;SDS011;16245;51.170;4.884;2022-10-04T23:24:53;16.30;;;9.63;;
29202;SDS011;16245;51.170;4.884;2022-10-04T23:27:20;16.23;;;8.10;;
29202;SDS011;16245;51.170;4.884;2022-10-04T23:29:46;17.38;;;8.75;;
29202;SDS011;16245;51.170;4.884;2022-10-04T23:32:14;9.23;;;7.80;;
29202;SDS011;16245;51.170;4.884;2022-10-04T23:34:43;7.70;;;6.90;;
29202;SDS011;16245;51.170;4.884;2022-10-04T23:37:18;9.15;;;7.40;;
29202;SDS011;16245;51.170;4.884;2022-10-04T23:39:46;9.52;;;7.30;;
29202;SDS011;16245;51.170;4.884;2022-10-04T23:42:23;11.15;;;7.32;;
29202;SDS011;16245;51.170;4.884;2022-10-04T23:44:54;15.82;;;6.93;;
29202;SDS011;16245;51.170;4.884;2022-10-04T23:47:21;8.88;;;6.55;;
29202;SDS011;16245;51.170;4.884;2022-10-04T23:49:57;9.38;;;7.00;;
29202;SDS011;16245;51.170;4.884;2022-10-04T23:52:24;9.60;;;6.95;;
29202;SDS011;16245;51.170;4.884;2022-10-04T23:54:56;11.07;;;7.32;;
29202;SDS011;16245;51.170;4.884;2022-10-04T23:57:23;14.20;;;7.97;;
29202;SDS011;16245;51.170;4.884;2022-10-04T23:59:50;12.30;;;7.40;;
